Mossoro, Brazil
Current Conditions -  °F | °C
As of 12:00 AM on Thursday 23 Oct 2014 (Local Time) from SBFZ Reporting Station
Scattered Clouds Scattered Clouds  
Wind Chill: 79°   Ceiling: Unl
Heat Index: 81°   Visibility: 6mi
Dew Point: 70°   Wind: 13mph
Humidity: 74%   Direction: 110°ESE
Pressure: 29.94"   Gusts: NA
Location:  5.19°S, 37.34°W
Report Text: SBFZ 230300Z 11011KT 9999 SCT020 26/21 Q1014
Loading
Personal Weather Stations






























Interactive Weather Map
Tropical Storm Tracking
New forecast layout! Learn more

10-Day Weather Forecast

Advertisements
Track Severe Weather on mobile